Time;durP1;ratioP1;P1;durP2;ratioP2;P2;SDS_P1;SDS_P2;PMS_P1;PMS_P2;Temp;Humidity;BMP_temperature;BMP_pressure;BME280_temperature;BME280_humidity;BME280_pressure;Samples;Min_cycle;Max_cycle;Signal;HPM_P1;HPM_P2
2023/09/02 00:02:21;;;;;;;13.73;10.40;;;16.70;99.90;;;;;;4954699;28;20075;-91
2023/09/02 00:04:46;;;;;;;15.80;9.95;;;16.70;99.90;;;;;;4956089;28;20487;-93
2023/09/02 00:07:12;;;;;;;10.05;8.77;;;16.70;99.90;;;;;;4983788;28;20522;-90
2023/09/02 00:09:37;;;;;;;12.30;9.77;;;16.80;99.90;;;;;;4968742;28;20062;-90
2023/09/02 00:12:04;;;;;;;11.10;9.25;;;16.80;99.90;;;;;;4971831;28;20031;-90
2023/09/02 00:14:29;;;;;;;12.32;9.25;;;16.70;99.90;;;;;;4955080;28;20050;-92
2023/09/02 00:16:55;;;;;;;11.73;9.10;;;16.70;99.90;;;;;;4973119;28;20027;-91
2023/09/02 00:19:21;;;;;;;11.40;8.65;;;16.60;99.90;;;;;;4951492;29;20043;-92
2023/09/02 00:21:47;;;;;;;11.88;9.43;;;16.60;99.90;;;;;;4966498;28;20034;-91
2023/09/02 00:24:12;;;;;;;11.18;9.15;;;16.50;99.90;;;;;;4952752;28;20542;-92
2023/09/02 00:26:38;;;;;;;10.85;8.73;;;16.50;99.90;;;;;;4952443;28;20079;-89
2023/09/02 00:29:04;;;;;;;10.02;8.40;;;16.50;99.90;;;;;;4955605;28;20042;-92
2023/09/02 00:31:30;;;;;;;11.55;8.80;;;16.50;99.90;;;;;;4955083;28;20023;-91
2023/09/02 00:33:56;;;;;;;11.57;9.40;;;16.40;99.90;;;;;;4952459;28;20081;-90
2023/09/02 00:36:22;;;;;;;11.02;9.27;;;16.40;99.90;;;;;;4953851;28;20023;-92
2023/09/02 00:38:48;;;;;;;9.38;7.68;;;16.40;99.90;;;;;;4970212;28;20042;-91
2023/09/02 00:41:26;;;;;;;11.13;8.60;;;16.30;99.90;;;;;;4951587;28;20055;-93
2023/09/02 00:43:55;;;;;;;10.70;8.95;;;16.30;99.90;;;;;;4970586;28;20068;-90
2023/09/02 00:46:22;;;;;;;10.02;8.77;;;16.30;99.90;;;;;;4968913;28;20090;-93
2023/09/02 00:48:48;;;;;;;11.45;9.52;;;16.20;99.90;;;;;;4954718;28;20050;-89
2023/09/02 00:51:14;;;;;;;9.63;7.80;;;16.20;99.90;;;;;;4950210;28;20473;-93
2023/09/02 00:53:40;;;;;;;12.50;9.20;;;16.20;99.90;;;;;;4955293;28;20050;-91
2023/09/02 00:56:07;;;;;;;12.23;9.35;;;16.10;99.90;;;;;;4969874;28;20037;-89
2023/09/02 00:58:34;;;;;;;11.10;9.48;;;16.10;99.90;;;;;;4955017;28;20121;-91
2023/09/02 01:01:02;;;;;;;10.73;8.85;;;16.10;99.90;;;;;;4954713;28;20407;-90
2023/09/02 01:03:28;;;;;;;10.95;8.55;;;16.00;99.90;;;;;;4955078;28;20050;-93
2023/09/02 01:05:54;;;;;;;10.93;8.40;;;16.00;99.90;;;;;;4951362;28;20030;-88
2023/09/02 01:08:20;;;;;;;12.15;9.48;;;15.90;99.90;;;;;;4947393;28;20467;-90
2023/09/02 01:10:47;;;;;;;12.00;9.18;;;15.80;99.90;;;;;;4953426;28;20027;-92
2023/09/02 01:13:13;;;;;;;11.68;9.05;;;15.80;99.90;;;;;;4969482;28;20030;-93
2023/09/02 01:15:39;;;;;;;11.00;8.45;;;15.70;99.90;;;;;;4955139;28;20038;-90
2023/09/02 01:18:05;;;;;;;11.60;9.82;;;15.70;99.90;;;;;;4952040;28;20047;-93
2023/09/02 01:21:15;;;;;;;13.52;9.10;;;15.80;99.90;;;;;;4953466;28;20034;-91
2023/09/02 01:24:06;;;;;;;11.60;8.57;;;15.80;99.90;;;;;;4968396;28;20106;-91
2023/09/02 01:26:51;;;;;;;10.15;8.25;;;15.80;99.90;;;;;;4967470;28;20041;-89
2023/09/02 01:29:24;;;;;;;11.32;8.50;;;15.70;99.90;;;;;;4954255;28;20113;-92
2023/09/02 01:31:52;;;;;;;11.55;8.50;;;15.80;99.90;;;;;;4969871;28;20476;-94
2023/09/02 01:34:19;;;;;;;10.98;9.02;;;15.90;99.90;;;;;;4969432;28;20472;-93
2023/09/02 01:36:50;;;;;;;12.27;9.32;;;15.90;99.90;;;;;;4954959;28;20102;-94
2023/09/02 01:39:18;;;;;;;11.75;8.75;;;15.80;99.90;;;;;;4956431;28;20039;-92
2023/09/02 01:41:46;;;;;;;11.40;8.95;;;15.90;99.90;;;;;;4959820;28;20122;-92
2023/09/02 01:44:14;;;;;;;11.02;8.35;;;15.90;99.90;;;;;;4952672;28;20038;-93
2023/09/02 01:46:40;;;;;;;10.77;8.93;;;15.80;99.90;;;;;;4963312;28;20507;-89
2023/09/02 01:49:08;;;;;;;11.75;8.90;;;15.80;99.90;;;;;;4973437;28;20391;-90
2023/09/02 01:51:34;;;;;;;11.45;8.23;;;15.80;99.90;;;;;;4986349;28;20030;-90
2023/09/02 01:54:00;;;;;;;11.90;9.02;;;15.80;99.90;;;;;;4958145;28;20026;-92
2023/09/02 01:56:27;;;;;;;13.23;9.48;;;15.80;99.90;;;;;;4958756;28;20505;-92
2023/09/02 01:58:53;;;;;;;13.45;9.27;;;15.80;99.90;;;;;;4958396;28;20045;-94
2023/09/02 02:01:19;;;;;;;11.93;8.73;;;15.70;99.90;;;;;;4959020;28;20313;-92
2023/09/02 02:04:06;;;;;;;12.70;9.18;;;15.60;99.90;;;;;;4970823;28;20034;-92
2023/09/02 02:06:35;;;;;;;11.48;8.55;;;15.60;99.90;;;;;;4953301;28;20023;-93
2023/09/02 02:09:12;;;;;;;10.93;8.35;;;15.50;99.90;;;;;;4971483;28;20484;-93
2023/09/02 02:11:38;;;;;;;12.23;8.65;;;15.50;99.90;;;;;;4967875;28;20031;-92
2023/09/02 02:14:06;;;;;;;11.75;8.50;;;15.40;99.90;;;;;;4957128;28;20034;-93
2023/09/02 02:16:32;;;;;;;11.15;7.93;;;15.40;99.90;;;;;;4955081;28;20031;-93
2023/09/02 02:18:59;;;;;;;10.27;8.32;;;15.40;99.90;;;;;;4972196;28;20085;-93
2023/09/02 02:21:26;;;;;;;12.40;8.38;;;15.50;99.90;;;;;;4955716;28;20033;-88
2023/09/02 02:23:51;;;;;;;11.30;8.65;;;15.50;99.90;;;;;;4956564;28;20034;-89
2023/09/02 02:26:17;;;;;;;11.13;7.97;;;15.50;99.90;;;;;;4954855;28;20074;-92
2023/09/02 02:28:43;;;;;;;10.98;8.18;;;15.50;99.90;;;;;;4955836;28;20118;-93
2023/09/02 02:31:09;;;;;;;11.20;8.75;;;15.50;99.90;;;;;;4973303;28;20125;-93
2023/09/02 02:33:38;;;;;;;10.75;8.27;;;15.50;99.90;;;;;;4955579;28;20163;-93
2023/09/02 02:36:05;;;;;;;9.93;7.88;;;15.50;99.90;;;;;;4957551;28;20018;-93
2023/09/02 02:38:30;;;;;;;11.52;8.57;;;15.60;99.90;;;;;;4973136;28;20077;-92
2023/09/02 02:40:56;;;;;;;10.77;8.23;;;15.60;99.90;;;;;;4957541;28;20528;-93
2023/09/02 02:43:28;;;;;;;12.05;9.15;;;15.60;99.90;;;;;;4957247;28;20035;-92
2023/09/02 02:45:54;;;;;;;10.68;8.18;;;15.60;99.90;;;;;;4971452;28;20660;-92
2023/09/02 02:48:26;;;;;;;10.73;8.30;;;15.50;99.90;;;;;;4956956;28;20034;-92
2023/09/02 02:50:52;;;;;;;10.45;7.88;;;15.50;99.90;;;;;;4972442;28;20038;-89
2023/09/02 02:53:17;;;;;;;12.30;8.52;;;15.50;99.90;;;;;;4952575;28;20032;-90
2023/09/02 02:55:43;;;;;;;10.60;8.05;;;15.50;99.90;;;;;;4970308;28;20027;-91
2023/09/02 02:58:12;;;;;;;12.20;8.85;;;15.50;99.90;;;;;;4952224;28;20043;-91
2023/09/02 03:00:39;;;;;;;10.73;8.18;;;15.50;99.90;;;;;;4955607;28;20027;-91
2023/09/02 03:03:07;;;;;;;11.07;8.15;;;15.40;99.90;;;;;;4970196;28;20141;-92
2023/09/02 03:05:37;;;;;;;10.77;8.43;;;15.40;99.90;;;;;;4970214;28;20049;-91
2023/09/02 03:08:09;;;;;;;11.35;8.25;;;15.40;99.90;;;;;;4956113;28;20027;-93
2023/09/02 03:10:35;;;;;;;11.55;8.15;;;15.50;99.90;;;;;;4972285;28;20027;-91
2023/09/02 03:13:03;;;;;;;12.32;9.10;;;15.50;99.90;;;;;;4955495;28;20026;-93
2023/09/02 03:15:30;;;;;;;10.93;8.30;;;15.50;99.90;;;;;;4955620;28;20034;-90
2023/09/02 03:17:57;;;;;;;11.82;8.23;;;15.60;99.90;;;;;;4950976;28;20514;-92
2023/09/02 03:20:25;;;;;;;11.63;8.45;;;15.60;99.90;;;;;;4955193;28;20034;-89
2023/09/02 03:22:50;;;;;;;14.43;9.43;;;15.60;99.90;;;;;;4957142;28;20029;-92
2023/09/02 03:25:16;;;;;;;13.85;9.70;;;15.60;99.90;;;;;;4956950;28;20035;-91
2023/09/02 03:27:42;;;;;;;12.73;8.85;;;15.60;99.90;;;;;;4951847;28;20034;-91
2023/09/02 03:30:09;;;;;;;12.65;8.98;;;15.60;99.90;;;;;;4955814;28;20026;-90
2023/09/02 03:32:35;;;;;;;11.80;8.52;;;15.60;99.90;;;;;;4952608;28;20387;-92
2023/09/02 03:35:04;;;;;;;11.85;8.48;;;15.70;99.90;;;;;;4953944;28;20034;-92
2023/09/02 03:37:30;;;;;;;11.68;8.85;;;15.70;99.90;;;;;;4956383;28;20122;-90
2023/09/02 03:39:57;;;;;;;11.13;8.45;;;15.70;99.90;;;;;;4970214;28;20528;-93
2023/09/02 03:42:23;;;;;;;11.77;9.02;;;15.70;99.90;;;;;;4956733;28;20070;-89
2023/09/02 03:44:49;;;;;;;13.57;10.05;;;15.70;99.90;;;;;;4956162;28;20104;-92
2023/09/02 03:47:14;;;;;;;12.65;9.55;;;15.80;99.90;;;;;;4953561;28;20035;-93
2023/09/02 03:49:41;;;;;;;13.38;9.20;;;15.80;99.90;;;;;;4956532;28;20542;-91
2023/09/02 03:52:07;;;;;;;13.98;9.75;;;15.80;99.90;;;;;;4956846;28;20070;-89
2023/09/02 03:54:34;;;;;;;13.05;9.63;;;15.80;99.90;;;;;;4953285;28;20062;-91
2023/09/02 03:57:00;;;;;;;14.82;10.85;;;15.80;99.90;;;;;;4951940;28;20041;-93
2023/09/02 03:59:26;;;;;;;16.58;10.93;;;15.80;99.90;;;;;;4953393;28;20051;-93
2023/09/02 04:01:53;;;;;;;17.05;11.38;;;15.80;99.90;;;;;;4968989;28;20023;-91
2023/09/02 04:04:19;;;;;;;15.15;10.73;;;15.90;99.90;;;;;;4954766;28;20121;-90
2023/09/02 04:06:45;;;;;;;15.68;10.60;;;15.80;99.90;;;;;;4953562;28;20491;-93
2023/09/02 04:09:10;;;;;;;15.35;10.73;;;15.90;99.90;;;;;;4955854;28;20023;-94
2023/09/02 04:11:36;;;;;;;17.45;11.40;;;15.90;99.90;;;;;;4951985;28;20675;-92
2023/09/02 04:14:02;;;;;;;18.65;11.73;;;15.90;99.90;;;;;;4953062;28;20026;-92
2023/09/02 04:16:28;;;;;;;15.38;11.02;;;15.90;99.90;;;;;;4966854;28;20547;-92
2023/09/02 04:18:55;;;;;;;18.48;11.68;;;15.90;99.90;;;;;;4954782;28;20039;-92
2023/09/02 04:21:20;;;;;;;18.15;11.25;;;15.90;99.90;;;;;;4955178;28;20073;-92
2023/09/02 04:23:47;;;;;;;20.33;12.82;;;15.90;99.90;;;;;;4968044;28;20097;-91
2023/09/02 04:26:14;;;;;;;19.95;11.52;;;15.90;99.90;;;;;;4951665;28;20023;-92
2023/09/02 04:28:40;;;;;;;20.75;12.27;;;15.90;99.90;;;;;;4971410;28;20066;-92
2023/09/02 04:31:06;;;;;;;25.00;14.27;;;15.90;99.90;;;;;;4953866;28;20030;-91
2023/09/02 04:33:34;;;;;;;23.20;13.70;;;15.90;99.90;;;;;;4954642;28;20030;-89
2023/09/02 04:36:02;;;;;;;28.08;14.80;;;15.90;99.90;;;;;;4950128;28;20019;-93
2023/09/02 04:38:31;;;;;;;25.87;13.07;;;15.90;99.90;;;;;;4953809;28;20185;-93
2023/09/02 04:40:56;;;;;;;24.98;13.80;;;15.90;99.90;;;;;;4953470;28;20298;-89
2023/09/02 04:43:22;;;;;;;22.00;12.63;;;15.90;99.90;;;;;;4953174;28;20042;-91
2023/09/02 04:45:51;;;;;;;25.73;13.93;;;15.90;99.90;;;;;;4982309;28;20033;-91
2023/09/02 04:48:17;;;;;;;24.60;13.35;;;15.90;99.90;;;;;;4952246;28;20447;-94
2023/09/02 04:50:43;;;;;;;26.48;12.77;;;15.90;99.90;;;;;;4951096;28;20026;-93
2023/09/02 04:53:11;;;;;;;27.25;13.85;;;15.90;99.90;;;;;;4951689;28;20097;-93
2023/09/02 04:55:40;;;;;;;27.55;14.48;;;15.90;99.90;;;;;;4951676;28;20038;-93
2023/09/02 04:58:08;;;;;;;26.52;13.55;;;15.90;99.90;;;;;;4950063;28;20039;-93
2023/09/02 05:00:37;;;;;;;26.33;14.43;;;15.90;99.90;;;;;;4952420;28;20058;-90
2023/09/02 05:03:04;;;;;;;25.83;13.38;;;15.90;99.90;;;;;;4948729;28;20042;-89
2023/09/02 05:05:31;;;;;;;24.25;12.27;;;15.90;99.90;;;;;;4952312;28;20027;-90
2023/09/02 05:07:58;;;;;;;23.50;13.45;;;16.00;99.90;;;;;;4967438;28;20030;-92
2023/09/02 05:10:25;;;;;;;23.02;13.38;;;16.00;99.90;;;;;;4967658;28;20416;-92
2023/09/02 05:12:51;;;;;;;21.92;12.43;;;16.00;99.90;;;;;;4953884;28;20050;-93
2023/09/02 05:15:17;;;;;;;23.17;13.10;;;16.00;99.90;;;;;;4956962;28;20129;-93
2023/09/02 05:17:44;;;;;;;26.05;13.80;;;16.00;99.90;;;;;;4957257;28;20031;-92
2023/09/02 05:20:11;;;;;;;25.55;12.70;;;16.00;99.90;;;;;;4955886;28;20050;-92
2023/09/02 05:22:37;;;;;;;20.08;11.85;;;16.00;99.90;;;;;;4957318;28;20344;-90
2023/09/02 05:25:04;;;;;;;21.90;12.68;;;16.00;99.90;;;;;;4955702;28;20033;-89
2023/09/02 05:27:30;;;;;;;22.67;12.50;;;16.00;99.90;;;;;;4986136;28;20066;-92
2023/09/02 05:29:56;;;;;;;21.42;12.73;;;16.10;99.90;;;;;;4956121;28;20023;-90
2023/09/02 05:32:22;;;;;;;20.38;12.77;;;16.10;99.90;;;;;;4972671;28;20523;-87
2023/09/02 05:34:47;;;;;;;21.98;11.70;;;16.10;99.90;;;;;;4970674;28;20023;-91
2023/09/02 05:37:13;;;;;;;22.05;11.70;;;16.10;99.90;;;;;;4971262;28;20475;-91
2023/09/02 05:39:39;;;;;;;17.58;10.98;;;16.10;99.90;;;;;;4955242;28;20097;-91
2023/09/02 05:42:05;;;;;;;20.42;11.20;;;16.10;99.90;;;;;;4971537;28;20031;-90
2023/09/02 05:44:34;;;;;;;21.23;12.18;;;16.10;99.90;;;;;;4971856;28;20031;-93
2023/09/02 05:47:00;;;;;;;18.33;10.57;;;16.10;99.90;;;;;;4971234;28;20031;-91
2023/09/02 05:49:25;;;;;;;17.70;10.63;;;16.20;99.90;;;;;;4955560;28;20030;-91
2023/09/02 05:51:51;;;;;;;16.85;11.25;;;16.20;99.90;;;;;;4955834;28;20439;-93
2023/09/02 05:54:17;;;;;;;18.83;11.25;;;16.20;99.90;;;;;;4973376;28;20027;-91
2023/09/02 05:56:42;;;;;;;18.25;11.00;;;16.20;99.90;;;;;;4971855;28;20454;-90
2023/09/02 05:59:08;;;;;;;16.15;10.20;;;16.30;99.90;;;;;;4971714;28;20039;-90
2023/09/02 06:01:34;;;;;;;15.93;10.00;;;16.30;99.90;;;;;;4972291;28;20058;-93
2023/09/02 06:03:59;;;;;;;17.50;10.73;;;16.30;99.90;;;;;;4950703;28;20042;-90
2023/09/02 06:06:25;;;;;;;15.25;9.95;;;16.30;99.90;;;;;;4952530;28;20031;-90
2023/09/02 06:08:53;;;;;;;15.25;10.10;;;16.30;99.90;;;;;;4970199;28;20054;-91
2023/09/02 06:11:19;;;;;;;14.65;9.55;;;16.40;99.90;;;;;;4970701;28;20031;-87
2023/09/02 06:13:45;;;;;;;13.63;8.60;;;16.40;99.90;;;;;;4983984;28;20150;-89
2023/09/02 06:16:10;;;;;;;14.02;10.05;;;16.50;99.90;;;;;;4955748;28;20089;-88
2023/09/02 06:18:37;;;;;;;14.40;9.68;;;16.40;99.90;;;;;;4985036;28;20113;-89
2023/09/02 06:21:10;;;;;;;11.82;8.30;;;16.40;99.90;;;;;;4972875;28;20038;-87
2023/09/02 06:23:36;;;;;;;11.60;8.23;;;16.40;99.90;;;;;;4971467;28;20030;-91
2023/09/02 06:26:02;;;;;;;11.98;8.23;;;16.50;99.90;;;;;;4971448;28;20030;-93
2023/09/02 06:28:28;;;;;;;13.13;9.00;;;16.50;99.90;;;;;;4953294;28;20035;-88
2023/09/02 06:30:54;;;;;;;13.32;8.27;;;16.50;99.90;;;;;;4955257;28;20415;-90
2023/09/02 06:33:22;;;;;;;12.13;8.57;;;16.60;99.90;;;;;;4953678;28;20089;-92
2023/09/02 06:35:49;;;;;;;10.43;7.43;;;16.60;99.90;;;;;;4955937;28;20122;-91
2023/09/02 06:38:15;;;;;;;9.27;7.13;;;16.60;99.90;;;;;;4971114;28;20045;-92
2023/09/02 06:40:41;;;;;;;9.68;7.45;;;16.60;99.90;;;;;;4954876;28;20074;-88
2023/09/02 06:43:09;;;;;;;8.90;7.00;;;16.60;99.90;;;;;;4968945;28;20511;-86
2023/09/02 06:45:35;;;;;;;9.80;7.10;;;16.50;99.90;;;;;;4971577;28;20514;-92
2023/09/02 06:48:01;;;;;;;8.68;6.63;;;16.60;99.90;;;;;;4967907;28;20030;-87
2023/09/02 06:50:27;;;;;;;9.27;6.82;;;16.50;99.90;;;;;;4971831;28;20495;-90
2023/09/02 06:52:53;;;;;;;9.30;7.07;;;16.60;99.90;;;;;;4954806;28;20081;-89
2023/09/02 06:55:19;;;;;;;11.18;8.23;;;16.60;99.90;;;;;;4955274;28;20098;-91
2023/09/02 06:57:45;;;;;;;8.90;7.55;;;16.60;99.90;;;;;;4954028;28;20033;-90
2023/09/02 07:00:12;;;;;;;12.90;6.88;;;16.60;99.90;;;;;;4983021;28;20049;-89
2023/09/02 07:02:38;;;;;;;8.68;6.57;;;16.60;99.90;;;;;;4968907;28;20454;-89
2023/09/02 07:05:04;;;;;;;10.13;7.63;;;16.60;99.90;;;;;;4948905;28;20038;-92
2023/09/02 07:07:30;;;;;;;12.70;10.75;;;16.50;99.90;;;;;;4954533;28;20114;-92
2023/09/02 07:09:58;;;;;;;16.52;10.38;;;16.50;99.90;;;;;;4951978;28;20023;-90
2023/09/02 07:12:24;;;;;;;12.07;9.23;;;16.50;99.90;;;;;;4969947;28;20365;-91
2023/09/02 07:14:50;;;;;;;10.30;7.95;;;16.50;99.90;;;;;;4983551;28;20027;-91
2023/09/02 07:17:16;;;;;;;11.40;8.93;;;16.60;99.90;;;;;;4969759;28;20136;-90
2023/09/02 07:19:42;;;;;;;20.08;13.70;;;16.50;99.90;;;;;;4969178;28;20045;-89
2023/09/02 07:22:08;;;;;;;12.65;9.52;;;16.50;99.90;;;;;;4953345;28;20035;-86
2023/09/02 07:24:33;;;;;;;10.35;8.45;;;16.60;99.90;;;;;;4969679;28;20039;-90
2023/09/02 07:26:59;;;;;;;10.23;7.10;;;16.50;99.90;;;;;;4969148;28;20449;-90
2023/09/02 07:29:25;;;;;;;8.20;6.15;;;16.60;99.90;;;;;;4952472;28;20408;-90
2023/09/02 07:31:51;;;;;;;7.60;6.18;;;16.70;99.90;;;;;;4976403;28;20034;-87
2023/09/02 07:34:16;;;;;;;8.57;6.57;;;16.70;99.90;;;;;;4968811;28;20078;-91
2023/09/02 07:36:43;;;;;;;8.07;6.55;;;16.80;99.90;;;;;;4981064;28;20027;-86
2023/09/02 07:39:08;;;;;;;8.80;6.03;;;16.80;99.90;;;;;;4969184;28;20503;-88
2023/09/02 07:41:34;;;;;;;8.82;6.50;;;16.90;99.90;;;;;;4951474;28;20046;-87
2023/09/02 07:44:00;;;;;;;12.07;8.90;;;16.90;99.90;;;;;;4969431;28;20038;-92
2023/09/02 07:46:25;;;;;;;8.90;6.78;;;16.90;99.90;;;;;;4952131;28;20023;-92
2023/09/02 07:48:52;;;;;;;8.63;6.03;;;16.90;99.90;;;;;;4968788;28;20085;-87
2023/09/02 07:51:18;;;;;;;9.13;6.18;;;16.90;99.90;;;;;;4969768;28;20106;-93
2023/09/02 07:53:47;;;;;;;8.00;5.82;;;16.90;99.90;;;;;;4969729;28;20022;-91
2023/09/02 07:56:13;;;;;;;8.57;5.43;;;17.00;99.90;;;;;;4969367;28;20023;-92
2023/09/02 07:58:38;;;;;;;10.43;6.88;;;17.00;99.90;;;;;;4954439;28;20046;-93
2023/09/02 08:01:04;;;;;;;12.75;8.73;;;17.00;99.90;;;;;;4954738;28;20023;-84
2023/09/02 08:03:30;;;;;;;13.55;9.35;;;16.90;99.90;;;;;;4983927;28;20031;-93
2023/09/02 08:05:56;;;;;;;10.95;6.93;;;17.00;99.90;;;;;;4949437;28;20049;-89
2023/09/02 08:08:22;;;;;;;11.82;6.53;;;17.20;99.90;;;;;;4965206;28;20193;-95
2023/09/02 08:10:48;;;;;;;10.20;6.35;;;17.30;99.90;;;;;;4969856;28;20023;-92
2023/09/02 08:13:13;;;;;;;8.05;5.32;;;17.30;99.90;;;;;;4953944;28;20121;-90
2023/09/02 08:15:39;;;;;;;11.98;6.47;;;17.30;99.90;;;;;;4953070;28;20038;-91
2023/09/02 08:18:05;;;;;;;11.52;6.93;;;17.30;99.90;;;;;;4969924;28;20031;-95
2023/09/02 08:20:31;;;;;;;13.73;7.60;;;17.30;99.90;;;;;;4947835;28;20031;-91
2023/09/02 08:22:57;;;;;;;10.90;6.15;;;17.30;99.90;;;;;;4951771;28;20058;-91
2023/09/02 08:25:23;;;;;;;12.15;7.35;;;17.40;99.90;;;;;;4968653;28;20027;-87
2023/09/02 08:27:49;;;;;;;12.30;7.55;;;17.30;99.90;;;;;;4952075;28;20908;-91
2023/09/02 08:30:15;;;;;;;8.82;5.32;;;17.40;99.90;;;;;;4942152;28;20129;-92
2023/09/02 08:32:42;;;;;;;17.02;10.70;;;17.30;99.90;;;;;;4944459;28;20077;-87
2023/09/02 08:35:08;;;;;;;15.73;8.82;;;17.30;99.90;;;;;;4962010;28;20053;-85
2023/09/02 08:37:37;;;;;;;14.18;8.75;;;17.40;99.90;;;;;;4948789;28;20030;-87
2023/09/02 08:40:03;;;;;;;12.35;8.35;;;17.50;99.90;;;;;;4958194;28;20432;-86
2023/09/02 08:42:32;;;;;;;17.23;9.43;;;17.60;99.90;;;;;;4940929;28;20039;-85
2023/09/02 08:45:02;;;;;;;13.32;7.97;;;17.70;99.90;;;;;;4954072;28;20042;-89
2023/09/02 08:47:32;;;;;;;14.10;7.78;;;18.00;99.90;;;;;;4948101;28;20150;-86
2023/09/02 08:49:58;;;;;;;14.00;7.75;;;18.20;99.90;;;;;;4946529;28;20031;-87
2023/09/02 08:52:25;;;;;;;11.98;7.13;;;18.30;99.90;;;;;;4942720;28;20034;-87
2023/09/02 08:54:53;;;;;;;11.25;7.00;;;18.40;99.90;;;;;;4947157;28;20440;-88
2023/09/02 08:57:20;;;;;;;11.02;7.13;;;18.50;99.90;;;;;;4941963;28;20107;-88
2023/09/02 08:59:46;;;;;;;12.95;7.90;;;18.80;99.90;;;;;;4945804;28;20047;-88
2023/09/02 09:02:12;;;;;;;11.25;7.07;;;18.90;99.90;;;;;;4960984;28;20038;-88
2023/09/02 09:04:38;;;;;;;11.45;7.75;;;18.80;99.90;;;;;;4947260;28;20681;-88
2023/09/02 09:07:06;;;;;;;11.85;7.30;;;18.70;99.90;;;;;;4945167;28;20023;-88
2023/09/02 09:09:36;;;;;;;11.73;6.95;;;18.70;99.90;;;;;;4946195;28;20500;-88
2023/09/02 09:12:03;;;;;;;11.88;7.57;;;18.70;99.90;;;;;;4958393;28;20035;-90
2023/09/02 09:14:32;;;;;;;13.05;8.20;;;18.60;99.90;;;;;;4949563;28;20027;-86
2023/09/02 09:16:59;;;;;;;17.73;11.23;;;18.70;99.90;;;;;;4950754;28;20037;-89
2023/09/02 09:19:27;;;;;;;14.63;9.88;;;18.40;99.90;;;;;;4941897;28;20101;-89
2023/09/02 09:21:54;;;;;;;12.45;8.65;;;18.50;99.90;;;;;;4944081;28;20490;-88
2023/09/02 09:24:20;;;;;;;11.85;7.70;;;18.50;99.90;;;;;;4960185;28;20034;-87
2023/09/02 09:26:47;;;;;;;11.02;7.55;;;18.60;99.90;;;;;;4942009;28;20034;-87
2023/09/02 09:29:18;;;;;;;9.10;6.63;;;18.70;99.90;;;;;;4943216;28;20035;-84
2023/09/02 09:31:44;;;;;;;10.63;6.82;;;18.90;99.90;;;;;;4944402;28;20038;-86
2023/09/02 09:34:10;;;;;;;7.75;4.75;;;18.90;99.90;;;;;;4947183;28;20039;-88
2023/09/02 09:36:36;;;;;;;10.32;6.68;;;19.10;99.90;;;;;;4945971;28;20024;-87
2023/09/02 09:39:04;;;;;;;8.93;6.13;;;19.10;99.90;;;;;;4948001;28;20055;-85
2023/09/02 09:41:30;;;;;;;10.52;6.93;;;19.20;99.90;;;;;;4945687;28;20027;-85
2023/09/02 09:44:12;;;;;;;10.68;7.50;;;19.50;99.90;;;;;;4946209;28;20035;-85
2023/09/02 09:46:44;;;;;;;10.80;7.43;;;19.30;99.90;;;;;;4942157;28;20027;-92
2023/09/02 09:49:26;;;;;;;6.78;4.85;;;19.30;99.90;;;;;;4965005;28;20058;-90
2023/09/02 09:52:08;;;;;;;11.50;8.05;;;19.30;99.90;;;;;;4948546;28;20028;-85
2023/09/02 09:54:39;;;;;;;10.65;6.47;;;19.30;99.90;;;;;;4979255;28;20030;-89
2023/09/02 09:57:07;;;;;;;16.05;10.32;;;19.50;99.90;;;;;;4967811;28;20125;-92
2023/09/02 09:59:35;;;;;;;15.45;10.65;;;19.40;99.90;;;;;;4969065;28;20506;-90
2023/09/02 10:02:06;;;;;;;15.73;11.32;;;19.40;99.90;;;;;;4970234;28;20059;-86
2023/09/02 10:04:34;;;;;;;13.45;9.80;;;19.40;99.90;;;;;;4965057;28;20031;-90
2023/09/02 10:07:01;;;;;;;11.90;8.23;;;19.40;99.90;;;;;;4953560;28;20511;-88
2023/09/02 10:09:42;;;;;;;13.50;9.75;;;19.70;99.90;;;;;;4950122;28;20105;-85
2023/09/02 10:12:11;;;;;;;;;;;19.70;99.90;;;;;;4949899;28;20122;-93
2023/09/02 10:14:42;;;;;;;19.20;13.55;;;19.80;99.90;;;;;;4971469;28;19989;-93
2023/09/02 10:17:09;;;;;;;17.33;11.20;;;19.70;99.90;;;;;;4959254;28;20039;-89
2023/09/02 10:19:35;;;;;;;11.57;8.82;;;19.80;99.90;;;;;;4968999;28;20093;-87
2023/09/02 10:22:05;;;;;;;10.02;7.55;;;19.90;99.90;;;;;;4946441;28;20031;-91
2023/09/02 10:24:43;;;;;;;13.82;9.60;;;20.10;99.90;;;;;;4959028;28;20495;-87
2023/09/02 10:27:17;;;;;;;13.15;9.65;;;20.40;99.90;;;;;;4965813;28;20109;-86
2023/09/02 10:29:46;;;;;;;17.75;12.98;;;20.20;99.90;;;;;;4964607;28;20042;-87
2023/09/02 10:32:13;;;;;;;16.52;11.13;;;19.90;99.90;;;;;;4967134;28;20030;-87
2023/09/02 10:34:51;;;;;;;13.30;9.93;;;20.00;99.90;;;;;;4950864;28;20036;-88
2023/09/02 10:37:20;;;;;;;10.38;7.90;;;19.90;99.90;;;;;;4950261;28;20035;-88
2023/09/02 10:40:03;;;;;;;9.27;7.03;;;20.00;99.90;;;;;;4962914;28;20419;-91
2023/09/02 10:42:29;;;;;;;10.80;8.30;;;20.20;99.90;;;;;;4972378;28;20030;-89
2023/09/02 10:44:56;;;;;;;13.35;10.45;;;20.40;99.90;;;;;;4966251;28;20031;-93
2023/09/02 10:47:22;;;;;;;16.98;12.25;;;20.30;99.90;;;;;;4944546;28;20035;-88
2023/09/02 10:49:48;;;;;;;13.18;10.88;;;20.30;99.90;;;;;;4964640;28;20089;-91
2023/09/02 10:52:15;;;;;;;10.55;8.55;;;20.30;99.90;;;;;;4948168;28;20023;-85
2023/09/02 10:55:02;;;;;;;16.30;11.25;;;20.50;99.90;;;;;;4966648;28;20082;-90
2023/09/02 10:57:29;;;;;;;18.42;13.15;;;20.10;99.90;;;;;;4966331;28;20468;-91
2023/09/02 11:00:13;;;;;;;13.02;9.85;;;19.80;99.90;;;;;;4961555;28;20169;-86
2023/09/02 11:02:41;;;;;;;15.52;11.15;;;20.20;99.90;;;;;;4951515;28;20351;-88
2023/09/02 11:05:07;;;;;;;8.68;5.97;;;20.10;99.90;;;;;;4967087;28;20040;-86
2023/09/02 11:07:35;;;;;;;11.07;8.50;;;20.40;99.90;;;;;;4951133;28;20019;-85
2023/09/02 11:10:02;;;;;;;11.98;8.95;;;20.30;99.90;;;;;;4966719;28;20033;-89
2023/09/02 11:12:28;;;;;;;10.93;7.90;;;20.20;99.90;;;;;;4966542;28;20042;-88
2023/09/02 11:15:11;;;;;;;7.60;5.38;;;20.40;99.90;;;;;;4966031;28;20027;-89
2023/09/02 11:17:41;;;;;;;10.98;8.52;;;20.10;99.90;;;;;;4964264;28;20129;-89
2023/09/02 11:20:12;;;;;;;12.85;9.18;;;19.90;99.90;;;;;;4961002;28;20045;-89
2023/09/02 11:23:09;;;;;;;12.95;8.52;;;19.90;99.90;;;;;;4949344;28;20035;-91
2023/09/02 11:25:39;;;;;;;11.27;9.57;;;20.10;99.90;;;;;;4963456;28;20035;-90
2023/09/02 11:28:12;;;;;;;9.23;6.70;;;20.10;99.90;;;;;;4950044;28;20134;-92
2023/09/02 11:30:39;;;;;;;7.95;6.63;;;20.40;99.90;;;;;;4950383;28;20037;-87
2023/09/02 11:33:06;;;;;;;12.32;10.50;;;20.60;99.90;;;;;;4948330;28;20118;-92
2023/09/02 11:35:37;;;;;;;12.50;11.20;;;20.60;99.90;;;;;;4949995;28;20031;-90
2023/09/02 11:38:16;;;;;;;10.68;8.35;;;20.20;99.90;;;;;;4951105;28;20471;-89
2023/09/02 11:40:41;;;;;;;11.27;8.63;;;20.50;99.90;;;;;;4952973;28;20105;-85
2023/09/02 11:43:07;;;;;;;9.20;7.80;;;20.70;99.90;;;;;;4947385;28;20424;-91
2023/09/02 11:45:34;;;;;;;13.05;10.60;;;20.70;99.90;;;;;;4950625;28;20054;-90
2023/09/02 11:48:02;;;;;;;15.15;11.40;;;20.60;99.90;;;;;;4975609;28;20089;-93
2023/09/02 11:50:28;;;;;;;11.10;9.52;;;20.70;99.90;;;;;;4975464;28;20085;-91
2023/09/02 11:52:58;;;;;;;10.65;8.98;;;20.50;99.90;;;;;;4975699;28;20112;-92
2023/09/02 11:55:25;;;;;;;12.55;9.52;;;20.60;99.90;;;;;;4948632;28;20034;-90
2023/09/02 11:57:52;;;;;;;10.88;8.27;;;20.40;99.90;;;;;;4966933;28;20173;-88
2023/09/02 12:00:20;;;;;;;10.93;8.40;;;20.50;99.90;;;;;;4974263;28;20104;-90
2023/09/02 12:02:47;;;;;;;6.68;6.00;;;20.60;99.90;;;;;;4960331;28;20023;-87
2023/09/02 12:05:13;;;;;;;7.28;5.60;;;20.90;99.90;;;;;;4965186;28;20040;-92
2023/09/02 12:07:41;;;;;;;6.88;5.47;;;21.10;99.90;;;;;;4950671;28;20041;-93
2023/09/02 12:10:09;;;;;;;6.18;4.85;;;21.20;99.90;;;;;;4961245;28;20032;-92
2023/09/02 12:12:46;;;;;;;5.65;5.10;;;21.10;99.90;;;;;;4949002;28;20026;-85
2023/09/02 12:15:16;;;;;;;6.63;5.70;;;21.00;99.90;;;;;;4976725;28;20058;-91
2023/09/02 12:17:43;;;;;;;5.70;5.10;;;21.20;99.90;;;;;;4961764;28;20062;-85
2023/09/02 12:20:15;;;;;;;8.00;6.15;;;21.30;99.90;;;;;;4950471;28;20041;-90
2023/09/02 12:22:42;;;;;;;7.05;5.20;;;21.40;99.90;;;;;;4949976;28;20027;-94
2023/09/02 12:25:17;;;;;;;6.70;5.30;;;21.70;99.90;;;;;;4964393;28;20026;-87
2023/09/02 12:27:43;;;;;;;6.03;5.03;;;21.70;99.90;;;;;;4963853;28;22218;-91
2023/09/02 12:30:10;;;;;;;5.32;4.78;;;21.60;99.90;;;;;;4961229;28;20031;-90
2023/09/02 12:32:35;;;;;;;8.00;6.45;;;21.50;99.90;;;;;;4975348;28;20117;-85
2023/09/02 12:35:07;;;;;;;8.63;7.10;;;21.40;99.90;;;;;;4959971;28;20149;-93
2023/09/02 12:37:33;;;;;;;8.00;6.97;;;21.70;99.90;;;;;;4975378;28;20426;-89
2023/09/02 12:40:12;;;;;;;6.80;5.38;;;21.80;99.90;;;;;;4964469;28;20059;-93